Startpagina
METAR-TAF:

METAR-TAF

Vliegvelden :

Luchthaven van Auckland

Auckland, Nieuw-Zeeland

breedte: 37-01S, lengte: 174-48E, hoogte: 7 m

Actueel weer

Dit bericht is 32 minuten geleden gemaakt, om 23:30 UTC
Wind 13 kt uit het zuidzuidwesten
Temperatuur 20°C
Vochtigheid 73%
Druk 1012 hPa
Zicht 10 km of meer

METAR: NZAA 232330Z AUTO 21013KT 9999 OVC020/// 20/15 Q1012 NOSIG

Tijdstip: 13:02 (00:02 UTC)

Verwachting

Dit bericht is 56 minuten geleden gemaakt, om 23:06 UTC
Verwachting geldig van 24 om 00 UTC tot 25 om 00 UTC
Wind 12 kt uit het zuidwesten
Zicht 10 km of meer
Verspreide wolken op 3000 ft
Van 24 om 1400 UTC
Wind 2 kt uit variabele richting
Zicht 10 km of meer
Gebroken wolken op 2000 ft
lichte regenbuien

TAF: NZAA 232306Z 2400/2500 22012KT 9999 SCT030 FM241400 VRB02KT 9999 -SHRA BKN020

Waarnemingen en weersverwachtingen van meer dan 4000 vliegvelden (METAR en TAF).

De beschikbare stations zijn de gele en rode punten op de kaart.

Ga met uw muis naar het station om de naam te zien.

Klik dan om waarnemingen en weersverwachtingen te zien.

kaart wijzigen: klik op de groene knoppen met een zwart kruis om in te zoomen, op de groene knop met een streepje om uit te zoomen of op de groene pijlen voor aangrenzende kaarten.


METAR-TAF: